Time;durP1;ratioP1;P1;durP2;ratioP2;P2;SDS_P1;SDS_P2;PMS_P1;PMS_P2;Temp;Humidity;BMP_temperature;BMP_pressure;BME280_temperature;BME280_humidity;BME280_pressure;Samples;Min_cycle;Max_cycle;Signal;HPM_P1;HPM_P2
2022/05/29 00:00:55;;;;;;;3.70;1.23;;;10.30;59.70;;;;;;4969704;28;20376;-72
2022/05/29 00:03:21;;;;;;;1.10;0.82;;;10.20;59.80;;;;;;4979059;28;20558;-72
2022/05/29 00:05:47;;;;;;;3.30;0.90;;;10.20;59.90;;;;;;4971699;28;20064;-71
2022/05/29 00:08:19;;;;;;;3.35;0.70;;;10.20;60.00;;;;;;4964491;28;20096;-74
2022/05/29 00:10:45;;;;;;;1.05;0.80;;;10.20;60.20;;;;;;4980916;28;20124;-75
2022/05/29 00:13:14;;;;;;;1.25;0.80;;;10.20;60.20;;;;;;4963938;28;20037;-74
2022/05/29 00:15:39;;;;;;;4.10;1.00;;;10.20;60.40;;;;;;4987572;28;20044;-73
2022/05/29 00:18:06;;;;;;;3.35;1.00;;;10.10;60.40;;;;;;4981224;28;20041;-74
2022/05/29 00:20:32;;;;;;;3.33;1.20;;;10.10;60.50;;;;;;4985742;28;20039;-74
2022/05/29 00:22:58;;;;;;;3.63;1.17;;;10.10;60.40;;;;;;4964346;28;20037;-73
2022/05/29 00:25:23;;;;;;;2.90;1.35;;;10.00;60.70;;;;;;4975822;28;20033;-73
2022/05/29 00:27:49;;;;;;;3.72;0.90;;;9.90;60.70;;;;;;4966924;28;20635;-73
2022/05/29 00:30:14;;;;;;;3.03;1.42;;;9.90;60.80;;;;;;4979056;28;20038;-73
2022/05/29 00:32:40;;;;;;;4.88;1.45;;;9.80;60.90;;;;;;4996129;28;20044;-73
2022/05/29 00:35:06;;;;;;;3.38;1.30;;;9.80;61.10;;;;;;4966113;28;20555;-73
2022/05/29 00:37:35;;;;;;;3.47;1.08;;;9.70;61.30;;;;;;4954082;28;20695;-73
2022/05/29 00:40:00;;;;;;;4.07;2.17;;;9.70;61.60;;;;;;4960971;28;20072;-73
2022/05/29 00:42:26;;;;;;;5.25;3.03;;;9.70;61.60;;;;;;4965561;28;20062;-73
2022/05/29 00:44:51;;;;;;;4.18;1.70;;;9.60;61.60;;;;;;4994624;28;20592;-73
2022/05/29 00:47:18;;;;;;;2.88;1.40;;;9.50;61.60;;;;;;4978777;28;20584;-73
2022/05/29 00:49:45;;;;;;;3.53;1.50;;;9.40;61.90;;;;;;4995075;28;20393;-73
2022/05/29 00:52:16;;;;;;;4.82;1.65;;;9.40;62.20;;;;;;4997094;28;20030;-74
2022/05/29 00:54:49;;;;;;;2.03;1.30;;;9.30;62.70;;;;;;4975990;28;20372;-73
2022/05/29 00:57:17;;;;;;;3.60;1.48;;;9.30;62.70;;;;;;4965932;28;21969;-73
2022/05/29 00:59:43;;;;;;;1.95;1.30;;;9.20;62.80;;;;;;4978430;28;20046;-72
2022/05/29 01:02:09;;;;;;;1.75;1.27;;;9.20;62.90;;;;;;4968364;28;21371;-75
2022/05/29 01:04:35;;;;;;;2.08;1.10;;;9.20;63.10;;;;;;4975674;28;20533;-74
2022/05/29 01:07:06;;;;;;;4.60;1.02;;;9.20;63.10;;;;;;4977318;28;20046;-73
2022/05/29 01:09:32;;;;;;;3.55;1.30;;;9.10;63.30;;;;;;4939087;28;20041;-73
2022/05/29 01:12:10;;;;;;;1.35;1.20;;;9.10;63.30;;;;;;4979656;28;20041;-74
2022/05/29 01:15:18;;;;;;;0.98;0.68;;;9.00;63.90;;;;;;4992807;28;20036;-72
2022/05/29 01:18:20;;;;;;;1.42;0.90;;;9.00;64.10;;;;;;4993786;28;20611;-74
2022/05/29 01:21:07;;;;;;;1.48;0.90;;;9.00;64.20;;;;;;4994937;28;20038;-73
2022/05/29 01:24:06;;;;;;;3.65;1.20;;;9.00;64.00;;;;;;4958668;28;20042;-73
2022/05/29 01:27:04;;;;;;;2.45;1.20;;;9.00;64.40;;;;;;4970569;28;20531;-73
2022/05/29 01:29:43;;;;;;;5.50;0.98;;;9.10;64.40;;;;;;4975071;28;20481;-73
2022/05/29 01:32:13;;;;;;;1.80;0.98;;;9.00;64.30;;;;;;4965747;28;20030;-72
2022/05/29 01:34:52;;;;;;;4.00;1.23;;;9.00;64.20;;;;;;5000194;28;20038;-73
2022/05/29 01:37:26;;;;;;;1.60;1.17;;;9.00;64.40;;;;;;4994292;28;20044;-74
2022/05/29 01:40:08;;;;;;;4.03;1.33;;;9.00;65.30;;;;;;4984923;28;20125;-72
2022/05/29 01:43:07;;;;;;;5.65;1.13;;;9.00;64.90;;;;;;4988549;28;20572;-73
2022/05/29 01:46:05;;;;;;;1.27;1.00;;;9.10;65.00;;;;;;4951170;28;20554;-72
2022/05/29 01:48:39;;;;;;;3.72;1.20;;;9.10;65.00;;;;;;4972833;28;20041;-73
2022/05/29 01:51:12;;;;;;;2.28;0.93;;;9.10;64.50;;;;;;4978265;28;20045;-73
2022/05/29 01:53:40;;;;;;;3.92;1.23;;;9.00;65.50;;;;;;4986034;28;20034;-73
2022/05/29 01:56:37;;;;;;;1.70;1.05;;;9.00;64.80;;;;;;4980362;28;20078;-74
2022/05/29 01:59:11;;;;;;;2.72;1.13;;;9.00;65.30;;;;;;4974542;28;20054;-74
2022/05/29 02:01:39;;;;;;;3.40;1.00;;;9.10;65.20;;;;;;4988658;28;20025;-73
2022/05/29 02:04:13;;;;;;;1.63;0.98;;;9.10;65.20;;;;;;4966953;28;20061;-74
2022/05/29 02:09:25;;;;;;;1.23;0.90;;;9.10;65.40;;;;;;4968302;28;20073;-74
2022/05/29 02:11:52;;;;;;;3.78;1.33;;;9.20;65.40;;;;;;4968773;28;20030;-72
2022/05/29 02:14:24;;;;;;;2.88;1.20;;;9.20;65.60;;;;;;4991138;28;20040;-74
2022/05/29 02:16:59;;;;;;;1.90;1.00;;;9.20;65.60;;;;;;4993399;28;20460;-73
2022/05/29 02:19:28;;;;;;;3.53;1.10;;;9.20;65.90;;;;;;4971763;28;20668;-73
2022/05/29 02:22:14;;;;;;;4.10;1.70;;;9.30;65.80;;;;;;4983040;28;20513;-75
2022/05/29 02:24:49;;;;;;;4.95;1.08;;;9.30;66.40;;;;;;4990264;28;20033;-74
2022/05/29 02:27:36;;;;;;;5.50;1.33;;;9.30;66.10;;;;;;4983416;28;21427;-73
2022/05/29 02:30:02;;;;;;;6.15;1.40;;;9.30;66.70;;;;;;4978793;28;20120;-73
2022/05/29 02:32:47;;;;;;;3.65;1.05;;;9.30;66.00;;;;;;4983099;28;20061;-75
2022/05/29 02:35:34;;;;;;;3.58;1.30;;;9.30;66.20;;;;;;4996332;28;20034;-73
2022/05/29 02:38:28;;;;;;;5.20;1.48;;;9.30;67.00;;;;;;4969774;28;20113;-74
2022/05/29 02:41:03;;;;;;;4.45;1.10;;;9.30;67.20;;;;;;4987644;28;20115;-72
2022/05/29 02:44:08;;;;;;;3.83;1.15;;;9.30;66.80;;;;;;4996981;28;20084;-73
2022/05/29 02:46:55;;;;;;;4.07;1.10;;;9.40;67.50;;;;;;4948648;28;20053;-73
2022/05/29 02:49:25;;;;;;;2.35;1.05;;;9.40;67.00;;;;;;4999264;28;20038;-72
2022/05/29 02:51:56;;;;;;;4.72;1.40;;;9.30;67.20;;;;;;4970984;28;20057;-72
2022/05/29 02:54:25;;;;;;;2.17;1.10;;;9.40;67.20;;;;;;4972687;28;20038;-73
2022/05/29 02:56:52;;;;;;;3.53;1.20;;;9.40;67.50;;;;;;4965702;28;20612;-73
2022/05/29 02:59:18;;;;;;;2.10;1.10;;;9.40;67.90;;;;;;4972738;28;20041;-72
2022/05/29 03:01:58;;;;;;;5.97;1.40;;;9.30;67.90;;;;;;4964413;28;20030;-73
2022/05/29 03:04:40;;;;;;;2.80;1.23;;;9.40;68.40;;;;;;4998815;28;20049;-72
2022/05/29 03:07:26;;;;;;;4.43;1.45;;;9.40;68.80;;;;;;4967990;28;20030;-72
2022/05/29 03:10:03;;;;;;;1.75;1.00;;;9.40;69.40;;;;;;4982156;28;20525;-71
2022/05/29 03:12:56;;;;;;;6.10;1.23;;;9.50;68.80;;;;;;4982669;28;20084;-72
2022/05/29 03:15:45;;;;;;;1.58;1.00;;;9.50;69.70;;;;;;4987871;28;20038;-73
2022/05/29 03:18:10;;;;;;;2.55;1.25;;;9.50;69.50;;;;;;4982369;28;20038;-72
2022/05/29 03:20:58;;;;;;;5.53;1.63;;;9.50;68.80;;;;;;4995782;28;20875;-72
2022/05/29 03:23:39;;;;;;;3.22;1.60;;;9.60;70.00;;;;;;4978977;28;20043;-71
2022/05/29 03:26:06;;;;;;;;;;;9.60;69.70;;;;;;4997162;28;20449;-72
2022/05/29 03:28:41;;;;;;;2.40;1.10;;;9.60;68.80;;;;;;4985776;28;19913;-71
2022/05/29 03:31:09;;;;;;;3.38;1.52;;;9.70;69.30;;;;;;4951449;28;20128;-71
2022/05/29 03:33:37;;;;;;;2.10;1.42;;;9.70;69.20;;;;;;4979596;28;20041;-73
2022/05/29 03:36:06;;;;;;;2.80;1.75;;;9.70;69.50;;;;;;4994625;28;20033;-71
2022/05/29 03:38:31;;;;;;;2.28;1.50;;;9.70;69.70;;;;;;4988326;28;20561;-71
2022/05/29 03:40:57;;;;;;;2.13;1.13;;;9.70;69.90;;;;;;4980868;28;20057;-72
2022/05/29 03:43:22;;;;;;;2.80;1.25;;;9.70;70.00;;;;;;4978983;28;20053;-72
2022/05/29 03:45:48;;;;;;;6.57;2.05;;;9.70;70.00;;;;;;4995010;28;20088;-72
2022/05/29 03:48:13;;;;;;;2.97;1.35;;;9.70;70.20;;;;;;4986004;28;20055;-72
2022/05/29 03:50:39;;;;;;;2.72;1.48;;;9.70;70.40;;;;;;4965156;28;20100;-71
2022/05/29 03:53:05;;;;;;;3.40;1.45;;;9.70;70.40;;;;;;4985124;28;20046;-71
2022/05/29 03:55:30;;;;;;;5.80;1.80;;;9.70;70.60;;;;;;4984159;28;20129;-72
2022/05/29 03:57:56;;;;;;;4.70;1.60;;;9.70;70.70;;;;;;4970060;28;20057;-71
2022/05/29 04:00:22;;;;;;;3.65;1.52;;;9.70;70.90;;;;;;4947224;28;20046;-71
2022/05/29 04:02:48;;;;;;;5.47;2.10;;;9.80;71.00;;;;;;4981551;28;20683;-71
2022/05/29 04:05:21;;;;;;;6.90;1.65;;;9.80;71.20;;;;;;4982211;28;20046;-71
2022/05/29 04:13:16;;;;;;;3.50;1.48;;;9.80;71.20;;;;;;4993668;28;20410;-73
2022/05/29 04:15:45;;;;;;;3.08;1.40;;;9.90;71.20;;;;;;4970807;28;20038;-71
2022/05/29 04:18:15;;;;;;;2.15;1.10;;;9.90;71.20;;;;;;4981277;28;20041;-71
2022/05/29 04:20:41;;;;;;;2.72;1.60;;;9.90;71.30;;;;;;4967324;28;20037;-72
2022/05/29 04:23:07;;;;;;;5.53;1.63;;;10.00;71.30;;;;;;4969756;28;20526;-72
2022/05/29 04:25:32;;;;;;;3.20;1.23;;;10.00;71.30;;;;;;4992742;28;20049;-72
2022/05/29 04:27:58;;;;;;;4.85;1.50;;;10.00;71.30;;;;;;4993491;28;20049;-72
2022/05/29 04:30:23;;;;;;;2.28;1.40;;;10.00;71.30;;;;;;4986159;28;20041;-71
2022/05/29 04:33:01;;;;;;;2.42;1.23;;;10.00;71.30;;;;;;4995006;28;20034;-72
2022/05/29 04:35:31;;;;;;;5.22;1.25;;;10.10;71.50;;;;;;4995211;28;20139;-72
2022/05/29 04:37:57;;;;;;;3.00;1.40;;;10.10;71.50;;;;;;4993265;28;20045;-72
2022/05/29 04:40:23;;;;;;;3.28;1.48;;;10.10;71.40;;;;;;4996452;28;20388;-72
2022/05/29 04:42:49;;;;;;;3.67;1.50;;;10.10;71.50;;;;;;4996943;28;20088;-72
2022/05/29 04:45:14;;;;;;;4.15;1.58;;;10.10;71.60;;;;;;4993524;28;20037;-72
2022/05/29 04:47:40;;;;;;;5.78;1.73;;;10.20;71.80;;;;;;4980215;28;20112;-72
2022/05/29 04:50:07;;;;;;;4.10;1.35;;;10.20;71.80;;;;;;4995674;28;20108;-72
2022/05/29 04:52:34;;;;;;;3.72;1.42;;;10.20;71.70;;;;;;4961454;28;20048;-72
2022/05/29 04:54:59;;;;;;;5.03;1.67;;;10.30;71.70;;;;;;4965689;28;20087;-72
2022/05/29 04:57:25;;;;;;;2.85;1.70;;;10.30;71.80;;;;;;4976960;28;20042;-72
2022/05/29 04:59:50;;;;;;;2.90;1.45;;;10.30;71.90;;;;;;4964681;28;20030;-73
2022/05/29 05:02:16;;;;;;;5.05;2.00;;;10.30;71.80;;;;;;4987405;28;20037;-71
2022/05/29 05:04:41;;;;;;;3.22;1.42;;;10.40;71.90;;;;;;4979707;28;20038;-72
2022/05/29 05:07:07;;;;;;;3.00;1.40;;;10.40;71.80;;;;;;4941216;28;20039;-74
2022/05/29 05:09:32;;;;;;;3.20;1.67;;;10.40;71.80;;;;;;4948577;28;20026;-73
2022/05/29 05:11:58;;;;;;;4.43;1.60;;;10.50;71.90;;;;;;4979580;28;20088;-73
2022/05/29 05:14:24;;;;;;;2.45;1.27;;;10.50;71.80;;;;;;4994323;28;20376;-73
2022/05/29 05:16:50;;;;;;;2.70;1.25;;;10.60;71.80;;;;;;4969608;28;20033;-72
2022/05/29 05:19:16;;;;;;;4.60;1.90;;;10.60;71.80;;;;;;4977389;28;20168;-71
2022/05/29 05:21:42;;;;;;;4.65;1.70;;;10.60;71.80;;;;;;4998658;28;20072;-72
2022/05/29 05:24:07;;;;;;;4.85;1.55;;;10.70;71.90;;;;;;4970267;28;20026;-72
2022/05/29 05:26:33;;;;;;;5.07;1.60;;;10.70;71.80;;;;;;4981128;28;20057;-73
2022/05/29 05:28:59;;;;;;;5.47;2.00;;;10.70;71.70;;;;;;4979454;28;20025;-73
2022/05/29 05:31:25;;;;;;;3.72;1.88;;;10.80;71.60;;;;;;4986663;28;20060;-72
2022/05/29 05:33:51;;;;;;;5.50;1.50;;;10.80;71.60;;;;;;4947934;28;20095;-72
2022/05/29 05:36:16;;;;;;;5.70;1.52;;;10.80;71.50;;;;;;4998250;28;20030;-73
2022/05/29 05:38:42;;;;;;;5.03;1.48;;;10.80;71.30;;;;;;4971547;28;20050;-72
2022/05/29 05:41:11;;;;;;;2.58;1.52;;;10.90;71.30;;;;;;4970490;28;20049;-72
2022/05/29 05:43:37;;;;;;;3.22;1.73;;;10.90;71.50;;;;;;4978935;28;20038;-71
2022/05/29 05:46:08;;;;;;;6.03;1.45;;;11.00;71.40;;;;;;4973212;28;20043;-73
2022/05/29 05:48:34;;;;;;;2.33;1.38;;;11.00;71.50;;;;;;4996152;28;20042;-72
2022/05/29 05:51:00;;;;;;;4.07;1.40;;;11.10;71.20;;;;;;4964611;28;20040;-72
2022/05/29 05:53:26;;;;;;;4.05;1.48;;;11.20;71.20;;;;;;4939602;28;20123;-72
2022/05/29 05:55:51;;;;;;;4.50;1.55;;;11.30;71.00;;;;;;4970391;28;20124;-73
2022/05/29 05:58:17;;;;;;;3.65;1.58;;;11.40;70.80;;;;;;4982613;28;20046;-74
2022/05/29 06:08:11;;;;;;;3.33;1.23;;;11.60;70.20;;;;;;4968157;28;20096;-73
2022/05/29 06:10:36;;;;;;;7.35;1.60;;;11.60;69.90;;;;;;4932211;28;20030;-73
2022/05/29 06:13:05;;;;;;;3.67;1.52;;;11.60;69.60;;;;;;4971589;28;20416;-72
2022/05/29 06:15:31;;;;;;;5.38;1.40;;;11.60;69.60;;;;;;4961318;28;20030;-73
2022/05/29 06:17:57;;;;;;;6.32;1.30;;;11.60;69.60;;;;;;4952126;28;20406;-69
2022/05/29 06:20:24;;;;;;;5.70;1.33;;;11.70;69.70;;;;;;4948945;28;20030;-72
2022/05/29 06:22:49;;;;;;;6.35;1.70;;;11.70;69.60;;;;;;4962104;28;20034;-72
2022/05/29 06:25:15;;;;;;;6.15;2.08;;;11.80;69.50;;;;;;4969922;28;20482;-72
2022/05/29 06:27:43;;;;;;;4.70;1.85;;;11.90;69.50;;;;;;4965449;28;20141;-72
2022/05/29 06:30:10;;;;;;;2.97;1.20;;;12.00;69.40;;;;;;4979296;28;20041;-72
2022/05/29 06:32:36;;;;;;;5.97;1.27;;;12.00;69.20;;;;;;4952294;28;20398;-72
2022/05/29 06:35:01;;;;;;;4.32;1.35;;;12.10;69.10;;;;;;4961244;28;20035;-74
2022/05/29 06:37:28;;;;;;;7.55;1.50;;;12.10;68.90;;;;;;4949973;28;20531;-72
2022/05/29 06:39:53;;;;;;;4.00;1.20;;;12.10;68.80;;;;;;4981860;28;20042;-73
2022/05/29 06:42:19;;;;;;;3.55;1.10;;;12.20;68.80;;;;;;4956137;28;22077;-72
2022/05/29 06:44:44;;;;;;;6.20;1.30;;;12.20;68.60;;;;;;4967962;28;20030;-72
2022/05/29 06:47:10;;;;;;;6.78;1.50;;;12.30;68.30;;;;;;4950387;28;20037;-73
2022/05/29 06:49:36;;;;;;;4.43;1.30;;;12.30;68.30;;;;;;4938841;28;20034;-74
2022/05/29 06:52:05;;;;;;;3.03;1.15;;;12.30;68.30;;;;;;4964930;28;20066;-74
2022/05/29 06:54:31;;;;;;;7.50;2.50;;;12.40;68.30;;;;;;4979099;28;20037;-74
2022/05/29 06:56:57;;;;;;;6.60;1.40;;;12.50;68.20;;;;;;4962872;28;20031;-72
2022/05/29 06:59:23;;;;;;;8.38;1.85;;;12.50;67.90;;;;;;4980380;28;20031;-74
2022/05/29 07:07:21;;;;;;;3.38;1.20;;;12.80;67.50;;;;;;4972345;28;20049;-73
2022/05/29 07:09:47;;;;;;;4.93;1.27;;;12.90;67.30;;;;;;4977510;28;20674;-72
2022/05/29 07:12:20;;;;;;;5.05;1.52;;;13.00;67.20;;;;;;4999131;28;20131;-73
2022/05/29 07:14:53;;;;;;;4.57;1.48;;;13.00;67.00;;;;;;4969540;28;20052;-73
2022/05/29 07:17:18;;;;;;;4.47;1.35;;;13.00;66.80;;;;;;4997244;28;20113;-73
2022/05/29 07:19:44;;;;;;;6.38;1.70;;;13.00;66.50;;;;;;4997824;28;20120;-73
2022/05/29 07:22:11;;;;;;;2.55;1.02;;;13.00;66.40;;;;;;4979386;28;20120;-72
2022/05/29 07:24:37;;;;;;;8.10;1.83;;;13.10;66.40;;;;;;4965844;28;20647;-73
2022/05/29 07:27:03;;;;;;;3.15;1.10;;;13.20;66.10;;;;;;4988088;28;20124;-72
2022/05/29 07:29:28;;;;;;;6.65;1.58;;;13.40;66.00;;;;;;4997735;28;20037;-72
2022/05/29 07:31:54;;;;;;;3.80;1.20;;;13.50;65.90;;;;;;4996425;28;20136;-73
2022/05/29 07:34:20;;;;;;;5.95;1.25;;;13.70;65.70;;;;;;4974444;28;20676;-72
2022/05/29 07:36:46;;;;;;;7.07;1.63;;;13.90;65.50;;;;;;4970231;28;20030;-73
2022/05/29 07:39:12;;;;;;;8.35;1.42;;;14.00;65.00;;;;;;5000684;28;20045;-74
2022/05/29 07:44:23;;;;;;;5.97;1.02;;;14.30;64.30;;;;;;4977059;28;20771;-72
2022/05/29 07:46:48;;;;;;;4.13;1.10;;;14.40;64.00;;;;;;4984076;28;20034;-74
2022/05/29 07:49:14;;;;;;;5.85;1.40;;;14.60;63.60;;;;;;4987087;28;20915;-74
2022/05/29 07:51:39;;;;;;;3.25;1.10;;;14.80;63.20;;;;;;4999633;28;20033;-74
2022/05/29 07:54:05;;;;;;;5.20;1.17;;;15.00;63.00;;;;;;4995518;28;20121;-73
2022/05/29 07:56:31;;;;;;;5.03;1.33;;;15.10;62.60;;;;;;4992895;28;20038;-74
2022/05/29 07:58:56;;;;;;;4.57;1.42;;;15.20;62.20;;;;;;4992880;28;20048;-74
2022/05/29 08:01:22;;;;;;;5.32;1.30;;;15.20;61.80;;;;;;4972001;28;20573;-74
2022/05/29 08:03:48;;;;;;;4.70;1.00;;;15.30;61.50;;;;;;4958581;28;20084;-74
2022/05/29 08:06:13;;;;;;;5.45;1.00;;;15.50;61.20;;;;;;4967050;28;20037;-73
2022/05/29 08:08:39;;;;;;;5.82;1.02;;;15.70;60.70;;;;;;4995554;28;20458;-72
2022/05/29 08:11:05;;;;;;;3.85;0.93;;;15.90;60.20;;;;;;4985971;28;20062;-75
2022/05/29 08:13:31;;;;;;;4.20;1.15;;;16.10;59.60;;;;;;4955267;28;20057;-74
2022/05/29 08:15:56;;;;;;;3.53;1.00;;;16.20;59.20;;;;;;4983715;28;20034;-74
2022/05/29 08:18:23;;;;;;;1.73;0.63;;;16.30;58.80;;;;;;4970317;28;20041;-74
2022/05/29 08:20:48;;;;;;;5.70;1.27;;;16.50;58.50;;;;;;5001445;28;20067;-74
2022/05/29 08:23:14;;;;;;;2.83;1.10;;;16.70;58.30;;;;;;4998547;28;20073;-73
2022/05/29 08:31:28;;;;;;;4.30;1.00;;;17.30;57.20;;;;;;4939936;28;20043;-74
2022/05/29 08:33:53;;;;;;;5.18;0.90;;;17.60;56.70;;;;;;4926285;28;20035;-74
2022/05/29 08:36:24;;;;;;;5.70;1.15;;;17.70;56.30;;;;;;4945675;28;20041;-74
2022/05/29 08:38:52;;;;;;;5.38;0.80;;;17.80;55.60;;;;;;4995739;28;20045;-74
2022/05/29 08:41:26;;;;;;;3.38;1.00;;;17.90;55.30;;;;;;4977142;28;20034;-74
2022/05/29 08:44:07;;;;;;;3.40;0.98;;;18.00;54.90;;;;;;4966880;28;20037;-75
2022/05/29 08:46:39;;;;;;;3.60;0.98;;;18.00;53.70;;;;;;4990564;28;20064;-74
2022/05/29 08:49:05;;;;;;;3.53;1.05;;;17.90;54.10;;;;;;4971304;28;20105;-75
2022/05/29 08:51:54;;;;;;;5.50;1.20;;;17.90;54.30;;;;;;4965889;28;20037;-74
2022/05/29 08:54:36;;;;;;;4.78;1.05;;;18.00;52.90;;;;;;4996333;28;20048;-75
2022/05/29 08:57:04;;;;;;;1.88;0.63;;;18.00;53.40;;;;;;4971482;28;20053;-74
2022/05/29 09:00:11;;;;;;;1.73;0.80;;;18.00;53.30;;;;;;4998301;28;20034;-75
2022/05/29 09:02:52;;;;;;;3.40;1.10;;;18.00;52.20;;;;;;4954841;28;21139;-75
2022/05/29 09:05:40;;;;;;;4.93;1.02;;;18.10;52.10;;;;;;4953010;28;20109;-74
2022/05/29 09:08:28;;;;;;;2.05;0.98;;;18.20;51.40;;;;;;4995595;28;20045;-76
2022/05/29 09:11:16;;;;;;;2.90;1.42;;;18.30;50.60;;;;;;4979864;28;20041;-74
2022/05/29 09:13:50;;;;;;;4.40;1.10;;;18.30;51.60;;;;;;4949597;28;20622;-76
2022/05/29 09:16:17;;;;;;;5.15;1.35;;;18.30;51.10;;;;;;4944844;28;20030;-75
2022/05/29 09:18:48;;;;;;;2.42;0.68;;;18.40;51.30;;;;;;4965695;28;20136;-76
2022/05/29 09:21:17;;;;;;;3.47;1.08;;;18.40;50.80;;;;;;4969449;28;20050;-75
2022/05/29 09:23:47;;;;;;;3.40;0.90;;;18.40;50.70;;;;;;4984337;28;20038;-75
2022/05/29 09:26:15;;;;;;;1.98;0.80;;;18.60;50.50;;;;;;4979409;28;20042;-75
2022/05/29 09:28:41;;;;;;;2.80;0.80;;;18.80;50.40;;;;;;4963002;28;20088;-74
2022/05/29 09:31:15;;;;;;;2.70;0.77;;;18.90;50.00;;;;;;4981599;28;20120;-76
2022/05/29 09:33:41;;;;;;;2.72;0.80;;;19.20;48.80;;;;;;4994473;28;20046;-75
2022/05/29 09:36:36;;;;;;;5.65;0.98;;;19.10;49.00;;;;;;4985120;28;20085;-75
2022/05/29 09:39:06;;;;;;;5.57;1.25;;;19.20;48.30;;;;;;4982369;28;20082;-76
2022/05/29 09:42:11;;;;;;;3.42;0.80;;;19.30;48.50;;;;;;4984993;28;20034;-75
2022/05/29 09:44:37;;;;;;;5.53;0.70;;;19.40;46.70;;;;;;4958295;28;20092;-76
2022/05/29 09:50:09;;;;;;;2.85;0.80;;;19.30;47.80;;;;;;4982977;28;20044;-75
2022/05/29 09:52:37;;;;;;;1.90;0.70;;;19.30;47.40;;;;;;4986619;28;20078;-74
2022/05/29 09:55:36;;;;;;;3.53;0.90;;;19.30;47.80;;;;;;4983618;28;20034;-75
2022/05/29 09:58:09;;;;;;;3.20;0.73;;;19.30;47.00;;;;;;4950096;28;20030;-75
2022/05/29 10:00:40;;;;;;;3.45;0.88;;;19.40;47.20;;;;;;4983502;28;20073;-75
2022/05/29 10:03:09;;;;;;;1.63;0.85;;;19.60;47.10;;;;;;5001985;28;20049;-75
2022/05/29 10:05:39;;;;;;;3.35;0.68;;;19.80;46.90;;;;;;5000527;28;20034;-76
2022/05/29 10:08:17;;;;;;;1.23;0.70;;;20.10;46.70;;;;;;4980193;28;20045;-75
2022/05/29 10:10:43;;;;;;;2.28;0.65;;;20.50;46.00;;;;;;4980435;28;20121;-76
2022/05/29 10:13:09;;;;;;;7.18;1.10;;;20.80;46.20;;;;;;4966355;28;20201;-75
2022/05/29 10:15:39;;;;;;;2.03;0.82;;;20.90;45.80;;;;;;4955892;28;20417;-76
2022/05/29 10:18:28;;;;;;;2.33;0.93;;;21.10;45.30;;;;;;4966206;28;20097;-74
2022/05/29 10:20:55;;;;;;;2.97;0.90;;;21.10;44.60;;;;;;4953709;28;20070;-73
2022/05/29 10:23:34;;;;;;;2.45;0.80;;;21.10;44.90;;;;;;4950781;28;20042;-74
2022/05/29 10:26:04;;;;;;;3.35;0.65;;;21.10;44.10;;;;;;4961052;28;20109;-74
2022/05/29 10:28:31;;;;;;;1.20;0.68;;;21.20;44.70;;;;;;4982024;28;20034;-74
2022/05/29 10:31:04;;;;;;;2.33;0.70;;;21.20;44.50;;;;;;4971983;28;20034;-75
2022/05/29 10:33:31;;;;;;;5.78;1.17;;;21.20;44.80;;;;;;4950839;28;20038;-74
2022/05/29 10:36:06;;;;;;;2.22;0.70;;;21.30;44.00;;;;;;4934529;28;20084;-74
2022/05/29 10:38:31;;;;;;;2.80;0.90;;;21.30;43.60;;;;;;4984093;28;20037;-75
2022/05/29 10:40:58;;;;;;;1.85;0.70;;;21.20;43.60;;;;;;4978944;28;20030;-75
2022/05/29 10:43:46;;;;;;;2.83;0.80;;;21.10;43.30;;;;;;4931305;28;20039;-73
2022/05/29 10:46:15;;;;;;;6.80;1.20;;;21.00;42.70;;;;;;4963017;28;20042;-74
2022/05/29 10:49:07;;;;;;;4.00;0.90;;;21.00;43.40;;;;;;4952103;28;20042;-75
2022/05/29 10:51:55;;;;;;;2.92;0.85;;;21.20;42.50;;;;;;4965363;28;20031;-75
2022/05/29 10:54:29;;;;;;;4.57;0.70;;;21.40;42.70;;;;;;4965250;28;20499;-75
2022/05/29 10:57:04;;;;;;;0.93;0.50;;;21.50;42.80;;;;;;4982865;28;20060;-73
2022/05/29 10:59:44;;;;;;;2.30;0.52;;;21.60;42.70;;;;;;4969191;28;20034;-74
2022/05/29 11:05:14;;;;;;;2.22;0.82;;;21.80;42.40;;;;;;4980121;28;20195;-74
2022/05/29 11:08:17;;;;;;;2.33;0.75;;;22.00;42.30;;;;;;4966189;28;20034;-74
2022/05/29 11:11:01;;;;;;;2.65;0.68;;;22.20;42.20;;;;;;4979084;28;20030;-74
2022/05/29 11:13:29;;;;;;;2.78;0.88;;;22.30;42.20;;;;;;4972518;28;20030;-74
2022/05/29 11:16:07;;;;;;;3.72;1.05;;;22.30;41.80;;;;;;4953270;28;20046;-74
2022/05/29 11:19:03;;;;;;;1.98;0.80;;;22.30;41.30;;;;;;4941585;28;24793;-74
2022/05/29 11:21:52;;;;;;;2.83;0.52;;;22.50;40.60;;;;;;4956861;28;20034;-74
2022/05/29 11:24:44;;;;;;;3.97;1.02;;;22.60;40.50;;;;;;4964646;28;20023;-73
2022/05/29 11:27:25;;;;;;;4.40;0.90;;;22.80;40.60;;;;;;4967398;28;20050;-74
2022/05/29 11:30:18;;;;;;;4.22;0.68;;;23.10;39.70;;;;;;4978130;28;20727;-74
2022/05/29 11:32:59;;;;;;;1.70;0.40;;;23.10;39.40;;;;;;4975192;28;20128;-74
2022/05/29 11:35:45;;;;;;;2.95;0.57;;;23.10;40.00;;;;;;4964478;28;20031;-75
2022/05/29 11:38:47;;;;;;;2.58;0.60;;;23.20;38.90;;;;;;4963329;28;20097;-74
2022/05/29 11:41:16;;;;;;;2.38;0.80;;;23.40;39.50;;;;;;4978662;28;20117;-74
2022/05/29 11:43:49;;;;;;;4.65;1.00;;;23.70;40.20;;;;;;4954808;28;20045;-74
2022/05/29 11:52:30;;;;;;;2.50;0.70;;;24.20;38.20;;;;;;4968525;28;20090;-73
2022/05/29 11:55:00;;;;;;;4.50;0.60;;;24.00;37.90;;;;;;4978563;28;20039;-73
2022/05/29 11:57:44;;;;;;;4.55;0.80;;;23.80;38.40;;;;;;4954040;28;20042;-73
2022/05/29 12:00:49;;;;;;;2.75;0.80;;;23.70;37.20;;;;;;4937928;28;20026;-73
2022/05/29 12:03:39;;;;;;;2.10;0.60;;;23.70;36.50;;;;;;4955380;28;20026;-73
2022/05/29 12:06:16;;;;;;;2.40;0.67;;;23.60;37.60;;;;;;4951357;28;20042;-73
2022/05/29 12:08:50;;;;;;;1.98;0.75;;;23.70;38.00;;;;;;4966285;28;20778;-74
2022/05/29 12:11:33;;;;;;;4.70;1.20;;;23.70;37.70;;;;;;5000565;28;20046;-72
2022/05/29 12:14:22;;;;;;;2.83;0.55;;;23.80;37.20;;;;;;4988181;28;20061;-73
2022/05/29 12:16:53;;;;;;;3.67;0.68;;;23.80;36.00;;;;;;4996374;28;20037;-73
2022/05/29 12:19:25;;;;;;;1.48;0.70;;;23.70;37.00;;;;;;4983347;28;20077;-74
2022/05/29 12:21:53;;;;;;;3.83;0.60;;;23.70;36.50;;;;;;4973370;28;26165;-72
2022/05/29 12:24:28;;;;;;;2.92;0.60;;;23.60;36.70;;;;;;4983116;28;20112;-73
2022/05/29 12:27:16;;;;;;;2.60;0.63;;;23.60;36.50;;;;;;4996778;28;20045;-74
2022/05/29 12:29:47;;;;;;;2.63;0.50;;;23.80;35.70;;;;;;4963075;28;20068;-73
2022/05/29 12:32:18;;;;;;;2.03;0.50;;;24.00;36.60;;;;;;4968182;28;20029;-74
2022/05/29 12:35:06;;;;;;;0.60;0.40;;;24.20;36.10;;;;;;4981375;28;20038;-74
2022/05/29 12:37:52;;;;;;;2.92;0.93;;;24.20;34.70;;;;;;4988102;28;20034;-74
2022/05/29 12:40:36;;;;;;;2.47;0.60;;;24.20;35.20;;;;;;4999534;28;20049;-73
2022/05/29 12:43:20;;;;;;;2.65;0.40;;;24.20;35.50;;;;;;4977418;28;20499;-73
2022/05/29 12:46:02;;;;;;;6.35;0.60;;;24.30;35.90;;;;;;4996765;28;20027;-73
2022/05/29 12:48:45;;;;;;;1.65;0.40;;;24.30;35.10;;;;;;4997526;28;20129;-73
2022/05/29 12:51:32;;;;;;;1.88;0.70;;;24.30;35.30;;;;;;4962025;28;20034;-73
2022/05/29 12:54:28;;;;;;;1.35;0.60;;;24.40;34.70;;;;;;4980167;28;20046;-73
2022/05/29 12:57:03;;;;;;;1.77;0.88;;;24.50;34.90;;;;;;4998290;28;20084;-73
2022/05/29 12:59:37;;;;;;;0.88;0.40;;;24.30;34.70;;;;;;4987993;28;20706;-72
2022/05/29 13:02:18;;;;;;;0.40;0.40;;;24.20;34.10;;;;;;4996661;28;20101;-73
2022/05/29 13:05:08;;;;;;;2.08;0.40;;;24.10;34.60;;;;;;4973429;28;20037;-74
2022/05/29 13:08:00;;;;;;;1.73;0.40;;;24.10;34.60;;;;;;4969508;28;20588;-74
2022/05/29 13:10:35;;;;;;;1.92;0.40;;;24.00;34.00;;;;;;4996888;28;20052;-73
2022/05/29 13:13:08;;;;;;;1.15;0.40;;;23.90;34.70;;;;;;4971354;28;20033;-72
2022/05/29 13:15:35;;;;;;;3.22;0.52;;;23.90;34.90;;;;;;4997317;28;20068;-74
2022/05/29 13:18:07;;;;;;;1.45;0.60;;;23.80;34.40;;;;;;4980841;28;20046;-73
2022/05/29 13:21:06;;;;;;;1.30;0.50;;;23.70;34.30;;;;;;4984242;28;20041;-74
2022/05/29 13:23:43;;;;;;;2.75;0.90;;;23.70;34.30;;;;;;4980674;28;20038;-71
2022/05/29 13:26:08;;;;;;;3.55;0.80;;;23.70;34.40;;;;;;4980544;28;20038;-74
2022/05/29 13:28:43;;;;;;;2.50;0.60;;;23.60;34.70;;;;;;4986169;28;20050;-72
2022/05/29 13:31:11;;;;;;;0.80;0.60;;;23.60;34.60;;;;;;4999483;28;20116;-73
2022/05/29 13:33:43;;;;;;;0.93;0.50;;;23.30;34.40;;;;;;4982813;28;20041;-73
2022/05/29 13:36:09;;;;;;;1.08;0.40;;;23.00;34.40;;;;;;4984856;28;20042;-73
2022/05/29 13:38:53;;;;;;;0.85;0.35;;;22.70;34.60;;;;;;4953069;28;20046;-72
2022/05/29 13:41:47;;;;;;;1.33;0.47;;;22.50;34.70;;;;;;4980641;28;20277;-74
2022/05/29 13:44:41;;;;;;;1.85;0.93;;;22.60;34.40;;;;;;4986675;28;20042;-73
2022/05/29 13:47:20;;;;;;;1.90;0.60;;;22.60;34.60;;;;;;4964865;28;20053;-73
2022/05/29 13:50:25;;;;;;;0.63;0.47;;;22.70;34.50;;;;;;4985230;28;20034;-74
2022/05/29 13:53:02;;;;;;;1.00;0.30;;;22.90;34.90;;;;;;4987136;28;20038;-73
2022/05/29 13:55:47;;;;;;;1.80;0.50;;;23.00;34.80;;;;;;4995894;28;20038;-73
2022/05/29 14:04:20;;;;;;;1.95;0.55;;;23.40;34.50;;;;;;4994324;28;21518;-73
2022/05/29 14:06:46;;;;;;;1.20;0.52;;;23.30;34.40;;;;;;4957008;28;20045;-73
2022/05/29 14:09:12;;;;;;;1.55;0.57;;;23.10;34.40;;;;;;4964637;28;20088;-73